Terminal Aerodrome Forecast
Issued by NWS Portland, OR

Home | Current Version | Previous Version | Text Only | Print | Product List | Glossary On
Versions: 1 2 3 4 5 6 7 8 9 10 11 12 13 14 15 16 17 18 19 20 21 22 23 24 25 26 27 28 29 30 31 32 33 34
419
FTUS46 KPQR 141457 AAA
TAFSLE
TAF AMD
KSLE 141457Z 1415/1512 17010KT 6SM -RA BKN009 OVC020
     FM141800 17010KT 6SM -RA SCT009 OVC020
     FM142000 18009KT P6SM -RA SCT015 OVC028
     FM150000 19009KT P6SM -RA SCT025 OVC035=

USA.gov is the U.S. government's official web portal to all federal, state and local government web resources and services.